Time;durP1;ratioP1;P1;durP2;ratioP2;P2;SDS_P1;SDS_P2;PMS_P1;PMS_P2;Temp;Humidity;BMP_temperature;BMP_pressure;BME280_temperature;BME280_humidity;BME280_pressure;Samples;Min_cycle;Max_cycle;Signal;HPM_P1;HPM_P2
2022/01/01 00:00:18;;;;;;;10.45;6.00;;;12.10;99.90;;;;;;5020246;28;20121;-80
2022/01/01 00:02:46;;;;;;;9.80;5.47;;;12.10;99.90;;;;;;5006398;28;20030;-80
2022/01/01 00:05:13;;;;;;;10.60;5.72;;;12.10;99.90;;;;;;5034670;28;20060;-79
2022/01/01 00:07:44;;;;;;;9.20;5.25;;;12.10;99.90;;;;;;5004000;28;20034;-80
2022/01/01 00:10:10;;;;;;;;;;;12.10;99.90;;;;;;5032639;28;20363;-80
2022/01/01 00:12:41;;;;;;;8.63;6.05;;;12.10;99.90;;;;;;5033271;28;20012;-79
2022/01/01 00:15:08;;;;;;;10.00;5.60;;;12.20;99.90;;;;;;5018521;28;20026;-80
2022/01/01 00:17:33;;;;;;;8.93;5.80;;;12.20;99.90;;;;;;5024498;28;20021;-79
2022/01/01 00:20:01;;;;;;;8.40;5.65;;;12.20;99.90;;;;;;5036975;28;20021;-78
2022/01/01 00:22:31;;;;;;;9.60;5.88;;;12.20;99.90;;;;;;5026688;28;20040;-78
2022/01/01 00:25:02;;;;;;;9.75;6.35;;;12.30;99.90;;;;;;5013640;28;20029;-77
2022/01/01 00:27:32;;;;;;;10.77;6.80;;;12.30;99.90;;;;;;5035331;28;20040;-78
2022/01/01 00:29:59;;;;;;;10.68;7.65;;;12.30;99.90;;;;;;5027819;28;20045;-78
2022/01/01 00:32:26;;;;;;;12.27;8.13;;;12.30;99.90;;;;;;5018331;28;20037;-78
2022/01/01 00:34:52;;;;;;;12.68;8.75;;;12.30;99.90;;;;;;5023750;28;20021;-78
2022/01/01 00:37:19;;;;;;;15.43;9.27;;;12.30;99.90;;;;;;5022140;28;20033;-79
2022/01/01 00:39:46;;;;;;;14.55;9.63;;;12.40;99.90;;;;;;5018686;28;20037;-79
2022/01/01 00:42:12;;;;;;;15.63;11.18;;;12.40;99.90;;;;;;5017678;28;20492;-79
2022/01/01 00:44:43;;;;;;;13.88;10.20;;;12.40;99.90;;;;;;5024438;28;20071;-79
2022/01/01 00:47:10;;;;;;;16.95;10.57;;;12.40;99.90;;;;;;5017125;28;20084;-79
2022/01/01 00:49:36;;;;;;;14.77;9.65;;;12.40;99.90;;;;;;5016156;28;20022;-80
2022/01/01 00:52:04;;;;;;;11.98;9.50;;;12.40;99.90;;;;;;4998276;28;20384;-80
2022/01/01 00:54:30;;;;;;;12.65;8.63;;;12.40;99.90;;;;;;5015668;28;20026;-80
2022/01/01 00:56:56;;;;;;;12.90;8.02;;;12.40;99.90;;;;;;5015917;28;20024;-79
2022/01/01 00:59:22;;;;;;;12.35;7.32;;;12.40;99.90;;;;;;5016078;28;20018;-80
2022/01/01 01:01:50;;;;;;;11.82;7.68;;;12.40;99.90;;;;;;4999536;28;20065;-79
2022/01/01 01:04:16;;;;;;;11.07;7.20;;;12.40;99.90;;;;;;5026408;28;20025;-80
2022/01/01 01:06:43;;;;;;;9.13;6.43;;;12.40;99.90;;;;;;5015969;28;20470;-78
2022/01/01 01:09:09;;;;;;;10.93;7.07;;;12.40;99.90;;;;;;5001757;28;20443;-79
2022/01/01 01:11:42;;;;;;;10.60;7.30;;;12.40;99.90;;;;;;5016540;28;20049;-80
2022/01/01 01:14:19;;;;;;;10.48;6.50;;;12.40;99.90;;;;;;5015059;28;20783;-79
2022/01/01 01:16:52;;;;;;;8.25;6.55;;;12.40;99.90;;;;;;4999216;28;20510;-79
2022/01/01 01:19:21;;;;;;;10.57;7.10;;;12.40;99.90;;;;;;4997940;28;20169;-81
2022/01/01 01:22:08;;;;;;;9.35;6.88;;;12.40;99.90;;;;;;4997911;28;20168;-79
2022/01/01 01:24:34;;;;;;;7.32;6.20;;;12.40;99.90;;;;;;5013472;28;20033;-79
2022/01/01 01:27:02;;;;;;;8.57;7.18;;;12.40;99.90;;;;;;5014469;28;20385;-81
2022/01/01 01:29:45;;;;;;;9.38;7.38;;;12.40;99.90;;;;;;5014992;28;20024;-81
2022/01/01 01:32:12;;;;;;;10.73;7.82;;;12.50;99.90;;;;;;4996928;28;20049;-80
2022/01/01 01:34:38;;;;;;;12.77;7.75;;;12.50;99.90;;;;;;5014466;28;20497;-78
2022/01/01 01:37:05;;;;;;;10.85;7.18;;;12.40;99.90;;;;;;4996989;28;20101;-80
2022/01/01 01:39:30;;;;;;;10.45;8.02;;;12.50;99.90;;;;;;5014659;28;20506;-80
2022/01/01 01:41:57;;;;;;;11.00;8.23;;;12.50;99.90;;;;;;4971726;28;20030;-80
2022/01/01 01:44:32;;;;;;;14.15;8.07;;;12.50;99.90;;;;;;4973591;28;20027;-78
2022/01/01 01:47:02;;;;;;;11.88;9.30;;;12.50;99.90;;;;;;4973436;28;20085;-79
2022/01/01 01:49:32;;;;;;;16.08;9.65;;;12.40;99.90;;;;;;4974639;28;20022;-79
2022/01/01 01:51:58;;;;;;;14.18;9.82;;;12.40;99.90;;;;;;4974498;28;20055;-79
2022/01/01 01:54:25;;;;;;;14.60;9.38;;;12.40;99.90;;;;;;4972166;28;20416;-80
2022/01/01 01:56:53;;;;;;;14.18;9.50;;;12.40;99.90;;;;;;5014425;28;20040;-79
2022/01/01 01:59:22;;;;;;;14.48;9.70;;;12.40;99.90;;;;;;4979909;28;20053;-80
2022/01/01 02:02:01;;;;;;;14.20;9.68;;;12.40;99.90;;;;;;4996439;28;20022;-79
2022/01/01 02:04:26;;;;;;;17.17;9.65;;;12.40;99.90;;;;;;4998390;28;20360;-80
2022/01/01 02:06:53;;;;;;;16.67;10.05;;;12.40;99.90;;;;;;5011312;28;20475;-80
2022/01/01 02:09:20;;;;;;;11.88;8.93;;;12.40;99.90;;;;;;5014191;28;20022;-79
2022/01/01 02:11:47;;;;;;;15.10;9.73;;;12.30;99.90;;;;;;4996531;28;20517;-81
2022/01/01 02:14:22;;;;;;;12.55;9.85;;;12.30;99.90;;;;;;5013058;28;20045;-78
2022/01/01 02:19:30;;;;;;;14.48;9.05;;;12.40;99.90;;;;;;5014352;28;20034;-79
2022/01/01 02:22:04;;;;;;;12.13;8.60;;;12.30;99.90;;;;;;5014120;28;20026;-79
2022/01/01 02:24:33;;;;;;;13.90;8.73;;;12.30;99.90;;;;;;4997678;28;20087;-80
2022/01/01 02:26:59;;;;;;;16.15;9.45;;;12.30;99.90;;;;;;5013692;28;20026;-78
2022/01/01 02:29:25;;;;;;;13.95;8.98;;;12.30;99.90;;;;;;4996137;28;20026;-79
2022/01/01 02:31:53;;;;;;;12.70;8.60;;;12.20;99.90;;;;;;5013585;28;20084;-78
2022/01/01 02:34:22;;;;;;;12.38;7.90;;;12.20;99.90;;;;;;5013734;28;20115;-79
2022/01/01 02:36:48;;;;;;;15.27;8.57;;;12.20;99.90;;;;;;5013723;28;20022;-80
2022/01/01 02:39:25;;;;;;;12.95;8.70;;;12.20;99.90;;;;;;4996104;28;20482;-79
2022/01/01 02:41:55;;;;;;;10.82;8.35;;;12.20;99.90;;;;;;5013966;28;20085;-80
2022/01/01 02:44:24;;;;;;;13.70;8.88;;;12.10;99.90;;;;;;4996797;28;20057;-80
2022/01/01 02:46:56;;;;;;;17.75;9.07;;;12.10;99.90;;;;;;4996012;28;20384;-80
2022/01/01 02:49:21;;;;;;;13.23;8.77;;;12.20;99.90;;;;;;5013763;28;20030;-80
2022/01/01 02:51:49;;;;;;;13.18;9.00;;;12.10;99.90;;;;;;5013394;28;20029;-79
2022/01/01 02:54:17;;;;;;;15.00;8.65;;;12.10;99.90;;;;;;5013701;28;20044;-80
2022/01/01 02:56:43;;;;;;;13.45;8.10;;;12.10;99.90;;;;;;4995961;28;20037;-80
2022/01/01 02:59:09;;;;;;;12.35;9.45;;;12.10;99.90;;;;;;5013672;28;20026;-80
2022/01/01 03:01:35;;;;;;;12.60;8.32;;;12.00;99.90;;;;;;5013617;28;20379;-78
2022/01/01 03:04:03;;;;;;;13.63;8.90;;;12.10;99.90;;;;;;4996017;28;20045;-78
2022/01/01 03:06:31;;;;;;;14.73;8.65;;;12.10;99.90;;;;;;5013454;28;20383;-79
2022/01/01 03:09:02;;;;;;;11.43;8.13;;;12.10;99.90;;;;;;5014327;28;20045;-80
2022/01/01 03:11:29;;;;;;;12.48;8.27;;;12.10;99.90;;;;;;5031579;28;20426;-79
2022/01/01 03:13:57;;;;;;;14.55;8.48;;;12.10;99.90;;;;;;5019670;28;20034;-76
2022/01/01 03:16:22;;;;;;;13.80;8.98;;;12.10;99.90;;;;;;5037115;28;20026;-79
2022/01/01 03:18:52;;;;;;;17.83;10.93;;;12.10;99.90;;;;;;5034849;28;20042;-79
2022/01/01 03:21:20;;;;;;;12.45;8.52;;;12.10;99.90;;;;;;5037252;28;20021;-78
2022/01/01 03:23:46;;;;;;;11.70;8.25;;;12.10;99.90;;;;;;5036656;28;20029;-80
2022/01/01 03:26:12;;;;;;;9.73;6.88;;;12.10;99.90;;;;;;5037022;28;20033;-79
2022/01/01 03:28:39;;;;;;;11.60;6.65;;;12.10;99.90;;;;;;5036948;28;20033;-78
2022/01/01 03:31:06;;;;;;;9.35;6.57;;;12.10;99.90;;;;;;5036950;28;20026;-79
2022/01/01 03:33:35;;;;;;;10.88;7.60;;;12.20;99.90;;;;;;5036378;28;20041;-80
2022/01/01 03:36:02;;;;;;;12.57;6.95;;;12.20;99.90;;;;;;5036748;28;20021;-78
2022/01/01 03:38:29;;;;;;;9.02;6.60;;;12.20;99.90;;;;;;5018873;28;20029;-79
2022/01/01 03:40:58;;;;;;;14.68;7.05;;;12.20;99.90;;;;;;5037242;28;20033;-80
2022/01/01 03:43:25;;;;;;;11.57;6.82;;;12.20;99.90;;;;;;5036710;28;20022;-79
2022/01/01 03:45:50;;;;;;;9.85;7.15;;;12.20;99.90;;;;;;5036554;28;20053;-78
2022/01/01 03:48:20;;;;;;;12.02;7.63;;;12.20;99.90;;;;;;5018742;28;20076;-78
2022/01/01 03:50:48;;;;;;;11.85;7.90;;;12.20;99.90;;;;;;5034435;28;20125;-78
2022/01/01 03:53:14;;;;;;;14.02;7.70;;;12.20;99.90;;;;;;5018676;28;20105;-79
2022/01/01 03:55:40;;;;;;;15.18;8.57;;;12.10;99.90;;;;;;5036548;28;20143;-79
2022/01/01 03:58:08;;;;;;;12.85;8.30;;;12.10;99.90;;;;;;5036523;28;20053;-79
2022/01/01 04:00:39;;;;;;;13.30;7.90;;;12.10;99.90;;;;;;5036583;28;20029;-79
2022/01/01 04:03:10;;;;;;;10.52;7.90;;;12.10;99.90;;;;;;5036822;28;20029;-77
2022/01/01 04:05:40;;;;;;;10.23;7.55;;;12.10;99.90;;;;;;5019003;28;20111;-79
2022/01/01 04:08:09;;;;;;;11.95;7.72;;;12.00;99.90;;;;;;5019594;28;20370;-80
2022/01/01 04:10:35;;;;;;;11.02;6.90;;;12.00;99.90;;;;;;5009725;28;20037;-81
2022/01/01 04:13:08;;;;;;;11.38;6.82;;;12.00;99.90;;;;;;5016240;28;20026;-80
2022/01/01 04:15:36;;;;;;;10.25;6.50;;;12.00;99.90;;;;;;4999179;28;20018;-80
2022/01/01 04:18:12;;;;;;;13.40;7.20;;;12.00;99.90;;;;;;4982710;28;20053;-80
2022/01/01 04:20:39;;;;;;;10.50;6.45;;;12.10;99.90;;;;;;4999447;28;20037;-80
2022/01/01 04:23:11;;;;;;;9.50;5.95;;;12.10;99.90;;;;;;4998827;28;20468;-80
2022/01/01 04:25:38;;;;;;;10.15;5.97;;;12.10;99.90;;;;;;4998656;28;20046;-80
2022/01/01 04:28:09;;;;;;;9.75;6.78;;;12.10;99.90;;;;;;4998824;28;20053;-80
2022/01/01 04:30:35;;;;;;;9.25;6.35;;;12.10;99.90;;;;;;4980740;28;20125;-81
2022/01/01 04:33:01;;;;;;;9.02;6.25;;;12.10;99.90;;;;;;5016182;28;20523;-80
2022/01/01 04:35:27;;;;;;;9.05;6.10;;;12.20;99.90;;;;;;4982373;28;20056;-80
2022/01/01 04:37:54;;;;;;;8.30;5.93;;;12.10;99.90;;;;;;4998341;28;20084;-80
2022/01/01 04:40:22;;;;;;;10.43;5.45;;;12.10;99.90;;;;;;5015891;28;20072;-80
2022/01/01 04:42:49;;;;;;;9.75;5.88;;;12.20;99.90;;;;;;5016062;28;20079;-79
2022/01/01 04:45:18;;;;;;;7.05;5.18;;;12.10;99.90;;;;;;5015936;28;20104;-79
2022/01/01 04:47:45;;;;;;;6.90;5.25;;;12.10;99.90;;;;;;5016080;28;20077;-80
2022/01/01 04:50:12;;;;;;;11.38;5.68;;;12.20;99.90;;;;;;5015489;28;20471;-80
2022/01/01 04:52:42;;;;;;;8.95;5.10;;;12.20;99.90;;;;;;5015748;28;20033;-80
2022/01/01 04:55:09;;;;;;;9.02;5.85;;;12.20;99.90;;;;;;5015785;28;20022;-80
2022/01/01 04:57:37;;;;;;;7.45;5.15;;;12.20;99.90;;;;;;5015737;28;20022;-80
2022/01/01 05:00:06;;;;;;;8.07;5.82;;;12.20;99.90;;;;;;5015496;28;20479;-80
2022/01/01 05:02:40;;;;;;;9.20;4.95;;;12.20;99.90;;;;;;4997958;28;20041;-79
2022/01/01 05:05:07;;;;;;;8.18;5.05;;;12.20;99.90;;;;;;5015263;28;20477;-79
2022/01/01 05:07:34;;;;;;;7.68;5.15;;;12.20;99.90;;;;;;4997569;28;20471;-79
2022/01/01 05:10:02;;;;;;;7.18;5.00;;;12.20;99.90;;;;;;4999660;28;20041;-82
2022/01/01 05:12:29;;;;;;;9.13;5.47;;;12.20;99.90;;;;;;5035304;28;20025;-82
2022/01/01 05:14:55;;;;;;;8.35;5.70;;;12.20;99.90;;;;;;5035311;28;20514;-79
2022/01/01 05:17:21;;;;;;;7.57;5.03;;;12.30;99.90;;;;;;5039690;28;20022;-80
2022/01/01 05:19:49;;;;;;;8.57;5.60;;;12.30;99.90;;;;;;5041348;28;20493;-80
2022/01/01 05:22:14;;;;;;;8.18;5.50;;;12.30;99.90;;;;;;5041085;28;20105;-80
2022/01/01 05:24:40;;;;;;;9.57;5.82;;;12.30;99.90;;;;;;5039389;28;20076;-79
2022/01/01 05:27:08;;;;;;;7.55;5.13;;;12.30;99.90;;;;;;5034925;28;20060;-79
2022/01/01 05:29:34;;;;;;;8.20;6.10;;;12.30;99.90;;;;;;5017007;28;20033;-80
2022/01/01 05:32:00;;;;;;;11.90;7.10;;;12.30;99.90;;;;;;5034436;28;20434;-80
2022/01/01 05:34:26;;;;;;;11.82;6.40;;;12.30;99.90;;;;;;5015185;28;20037;-80
2022/01/01 05:36:52;;;;;;;10.73;6.63;;;12.30;99.90;;;;;;5034653;28;20013;-79
2022/01/01 05:39:18;;;;;;;11.18;7.38;;;12.30;99.90;;;;;;5016930;28;20036;-79
2022/01/01 05:41:44;;;;;;;11.35;7.00;;;12.20;99.90;;;;;;5016685;28;20025;-79
2022/01/01 05:44:12;;;;;;;15.80;8.93;;;12.20;99.90;;;;;;5016872;28;20026;-79
2022/01/01 05:46:38;;;;;;;13.15;8.00;;;12.20;99.90;;;;;;5034489;28;20061;-79
2022/01/01 05:49:04;;;;;;;14.32;8.32;;;12.20;99.90;;;;;;5034263;28;20026;-79
2022/01/01 05:51:29;;;;;;;12.55;8.02;;;12.20;99.90;;;;;;5034274;28;20033;-79
2022/01/01 05:53:56;;;;;;;14.70;8.57;;;12.20;99.90;;;;;;5034316;28;20481;-79
2022/01/01 05:56:24;;;;;;;12.05;7.82;;;12.20;99.90;;;;;;5032079;28;20037;-79
2022/01/01 05:58:51;;;;;;;15.85;8.55;;;12.20;99.90;;;;;;5034461;28;20029;-80
2022/01/01 06:01:18;;;;;;;16.33;8.45;;;12.20;99.90;;;;;;5016192;28;20032;-77
2022/01/01 06:03:45;;;;;;;13.50;9.02;;;12.20;99.90;;;;;;5033864;28;20036;-79
2022/01/01 06:06:12;;;;;;;15.93;8.77;;;12.20;99.90;;;;;;5034221;28;20026;-79
2022/01/01 06:08:39;;;;;;;15.48;9.07;;;12.20;99.90;;;;;;5034159;28;20025;-80
2022/01/01 06:11:06;;;;;;;15.80;8.95;;;12.20;99.90;;;;;;5033532;28;20430;-80
2022/01/01 06:13:33;;;;;;;16.67;10.27;;;12.20;99.90;;;;;;5033770;28;20018;-80
2022/01/01 06:15:59;;;;;;;17.08;10.55;;;12.10;99.90;;;;;;5033667;28;20017;-81
2022/01/01 06:18:26;;;;;;;16.38;9.45;;;12.10;99.90;;;;;;5033671;28;20025;-79
2022/01/01 06:20:53;;;;;;;19.58;10.57;;;12.10;99.90;;;;;;5015807;28;20056;-79
2022/01/01 06:23:20;;;;;;;16.13;10.07;;;12.10;99.90;;;;;;5034280;28;20049;-78
2022/01/01 06:25:47;;;;;;;18.33;10.13;;;12.10;99.90;;;;;;4999710;28;20060;-79
2022/01/01 06:28:13;;;;;;;22.65;11.07;;;12.10;99.90;;;;;;5015988;28;20033;-79
2022/01/01 06:30:38;;;;;;;16.77;11.20;;;12.10;99.90;;;;;;5034278;28;20025;-80
2022/01/01 06:33:26;;;;;;;20.45;11.25;;;12.10;99.90;;;;;;5034819;28;20033;-80
2022/01/01 06:35:53;;;;;;;19.08;12.32;;;12.10;99.90;;;;;;5034337;28;20144;-77
2022/01/01 06:38:21;;;;;;;21.48;11.85;;;12.10;99.90;;;;;;5033559;28;20026;-79
2022/01/01 06:40:49;;;;;;;21.73;11.55;;;12.10;99.90;;;;;;5033523;28;20478;-78
2022/01/01 06:43:16;;;;;;;18.90;10.43;;;12.00;99.90;;;;;;5033401;28;20026;-78
2022/01/01 06:45:43;;;;;;;18.83;11.23;;;12.00;99.90;;;;;;5031561;28;20415;-78
2022/01/01 06:48:09;;;;;;;18.45;11.82;;;12.00;99.90;;;;;;4999289;28;20043;-77
2022/01/01 06:50:39;;;;;;;29.38;13.30;;;12.00;99.90;;;;;;5030908;28;20034;-76
2022/01/01 06:53:23;;;;;;;28.35;14.30;;;12.00;99.90;;;;;;5030846;28;20483;-78
2022/01/01 06:55:52;;;;;;;27.95;14.05;;;12.00;99.90;;;;;;5033581;28;20036;-76
2022/01/01 06:58:20;;;;;;;27.25;13.98;;;11.90;99.90;;;;;;5033322;28;20096;-77
2022/01/01 07:00:47;;;;;;;27.05;14.02;;;11.90;99.90;;;;;;5033631;28;20021;-78
2022/01/01 07:03:20;;;;;;;26.92;14.93;;;11.80;99.90;;;;;;5033352;28;20375;-79
2022/01/01 07:05:46;;;;;;;26.40;13.80;;;11.80;99.90;;;;;;5015449;28;20064;-78
2022/01/01 07:08:12;;;;;;;27.00;14.52;;;11.80;99.90;;;;;;5022268;28;20076;-78
2022/01/01 07:10:41;;;;;;;25.90;14.23;;;11.80;99.90;;;;;;5032766;28;20045;-77
2022/01/01 07:13:08;;;;;;;26.73;14.55;;;11.90;99.90;;;;;;5033361;28;20026;-77
2022/01/01 07:15:35;;;;;;;26.17;14.52;;;11.80;99.90;;;;;;5033080;28;20021;-77
2022/01/01 07:18:03;;;;;;;26.25;13.55;;;11.80;99.90;;;;;;5033043;28;20494;-77
2022/01/01 07:20:33;;;;;;;27.45;13.18;;;11.90;99.90;;;;;;5015278;28;20022;-77
2022/01/01 07:23:00;;;;;;;20.92;12.50;;;11.90;99.90;;;;;;5032965;28;20486;-77
2022/01/01 07:25:26;;;;;;;22.95;12.85;;;11.90;99.90;;;;;;5033025;28;20379;-77
2022/01/01 07:27:52;;;;;;;29.67;13.45;;;11.90;99.90;;;;;;5015404;28;20143;-77
2022/01/01 07:30:19;;;;;;;24.02;12.65;;;12.00;99.90;;;;;;5032998;28;20482;-77
2022/01/01 07:32:46;;;;;;;22.52;12.90;;;12.00;99.90;;;;;;5032934;28;20017;-77
2022/01/01 07:35:15;;;;;;;24.90;13.43;;;12.00;99.90;;;;;;5015257;28;20032;-76
2022/01/01 07:37:41;;;;;;;22.98;12.63;;;12.10;99.90;;;;;;5015568;28;20034;-77
2022/01/01 07:40:11;;;;;;;21.33;11.50;;;12.10;99.90;;;;;;5033051;28;20029;-77
2022/01/01 07:42:39;;;;;;;19.73;11.40;;;12.10;99.90;;;;;;5011197;28;20033;-77
2022/01/01 07:45:10;;;;;;;20.30;11.32;;;12.10;99.90;;;;;;5033559;28;20024;-77
2022/01/01 07:47:36;;;;;;;19.20;10.73;;;12.10;99.90;;;;;;5032881;28;20034;-76
2022/01/01 07:50:07;;;;;;;16.27;10.98;;;12.10;99.90;;;;;;5000081;28;20037;-77
2022/01/01 07:52:35;;;;;;;17.77;10.40;;;12.10;99.90;;;;;;5015876;28;20101;-78
2022/01/01 07:55:00;;;;;;;13.70;9.13;;;12.10;99.90;;;;;;5032782;28;20358;-78
2022/01/01 07:57:27;;;;;;;14.52;9.00;;;12.10;99.90;;;;;;5035694;28;20101;-78
2022/01/01 07:59:56;;;;;;;14.43;8.63;;;12.20;99.90;;;;;;5039517;28;20459;-77
2022/01/01 08:02:25;;;;;;;16.33;9.40;;;12.20;99.90;;;;;;5036352;28;20710;-78
2022/01/01 08:04:53;;;;;;;14.45;9.32;;;12.20;99.90;;;;;;5036579;28;20104;-78
2022/01/01 08:07:22;;;;;;;16.00;8.88;;;12.20;99.90;;;;;;5024365;28;20537;-77
2022/01/01 08:09:48;;;;;;;14.20;8.55;;;12.30;99.90;;;;;;5027099;28;20045;-77
2022/01/01 08:12:15;;;;;;;15.05;9.15;;;12.30;99.90;;;;;;5008165;28;20042;-77
2022/01/01 08:14:48;;;;;;;18.17;9.13;;;12.30;99.90;;;;;;5023305;28;20070;-76
2022/01/01 08:17:28;;;;;;;13.75;8.90;;;12.40;99.90;;;;;;5023406;28;20124;-77
2022/01/01 08:19:53;;;;;;;16.23;9.30;;;12.40;99.90;;;;;;5005275;28;20029;-76
2022/01/01 08:22:20;;;;;;;15.93;8.05;;;12.40;99.90;;;;;;5015762;28;20352;-77
2022/01/01 08:24:52;;;;;;;13.57;8.57;;;12.40;99.90;;;;;;5015978;28;20100;-78
2022/01/01 08:27:19;;;;;;;17.23;8.07;;;12.50;99.90;;;;;;5017155;28;20100;-75
2022/01/01 08:29:45;;;;;;;17.30;8.80;;;12.50;99.90;;;;;;5016839;28;20045;-77
2022/01/01 08:32:12;;;;;;;10.73;7.90;;;12.50;99.90;;;;;;5017018;28;20195;-77
2022/01/01 08:34:39;;;;;;;12.48;8.63;;;12.50;99.90;;;;;;5015792;28;20022;-74
2022/01/01 08:37:07;;;;;;;13.23;8.68;;;12.50;99.90;;;;;;5015959;28;20077;-74
2022/01/01 08:39:33;;;;;;;11.00;8.15;;;12.50;99.90;;;;;;5015801;28;20026;-76
2022/01/01 08:42:03;;;;;;;17.23;8.70;;;12.50;99.90;;;;;;5015405;28;20017;-75
2022/01/01 08:44:31;;;;;;;14.55;8.73;;;12.60;99.90;;;;;;5015630;28;20022;-75
2022/01/01 08:46:57;;;;;;;18.45;9.85;;;12.60;99.90;;;;;;5015628;28;20033;-76
2022/01/01 08:49:38;;;;;;;13.75;8.82;;;12.60;99.90;;;;;;5015618;28;20033;-74
2022/01/01 08:52:09;;;;;;;16.13;9.48;;;12.60;99.90;;;;;;5016355;28;20053;-75
2022/01/01 08:54:35;;;;;;;13.88;9.40;;;12.60;99.90;;;;;;5009740;28;20018;-75
2022/01/01 08:57:03;;;;;;;18.85;9.85;;;12.60;99.90;;;;;;5036073;28;20025;-75
2022/01/01 08:59:31;;;;;;;16.50;9.52;;;12.70;99.90;;;;;;5035280;28;20406;-75
2022/01/01 09:01:57;;;;;;;14.73;8.40;;;12.70;99.90;;;;;;5035579;28;20026;-75
2022/01/01 09:04:24;;;;;;;15.25;8.52;;;12.70;99.90;;;;;;5034978;28;20423;-73
2022/01/01 09:06:51;;;;;;;15.65;7.95;;;12.70;99.90;;;;;;5016894;28;20120;-74
2022/01/01 09:09:18;;;;;;;14.10;8.25;;;12.80;99.90;;;;;;5035228;28;20029;-73
2022/01/01 09:11:45;;;;;;;14.48;8.25;;;12.80;99.90;;;;;;5034627;28;20050;-74
2022/01/01 09:14:12;;;;;;;13.55;8.48;;;12.80;99.90;;;;;;5034834;28;20025;-73
2022/01/01 09:16:38;;;;;;;12.80;8.60;;;12.80;99.90;;;;;;5034859;28;20105;-73
2022/01/01 09:19:05;;;;;;;11.77;7.60;;;12.90;99.90;;;;;;5034914;28;20103;-73
2022/01/01 09:21:31;;;;;;;11.20;7.30;;;12.90;99.90;;;;;;5034630;28;20061;-73
2022/01/01 09:24:00;;;;;;;11.30;7.32;;;13.00;99.90;;;;;;5016860;28;20025;-74
2022/01/01 09:26:26;;;;;;;9.18;6.88;;;13.00;99.90;;;;;;5034883;28;20385;-73
2022/01/01 09:28:53;;;;;;;10.70;6.75;;;13.10;99.40;;;;;;5017036;28;20100;-75
2022/01/01 09:31:20;;;;;;;12.40;7.63;;;13.10;99.50;;;;;;5034542;28;20022;-74
2022/01/01 09:33:50;;;;;;;10.07;6.57;;;13.10;99.80;;;;;;5034636;28;20032;-74
2022/01/01 09:36:41;;;;;;;10.50;6.00;;;13.20;99.90;;;;;;5034519;28;20048;-74
2022/01/01 09:39:09;;;;;;;8.10;6.05;;;13.20;99.90;;;;;;5034544;28;20104;-74
2022/01/01 09:41:41;;;;;;;11.88;7.03;;;13.10;99.90;;;;;;5017279;28;20038;-75
2022/01/01 09:44:15;;;;;;;;;;;13.10;99.90;;;;;;5035118;28;20025;-74
2022/01/01 09:46:49;;;;;;;15.13;8.20;;;13.10;99.90;;;;;;5016943;28;19999;-74
2022/01/01 09:49:16;;;;;;;13.52;8.73;;;13.10;99.90;;;;;;5000794;28;20128;-73
2022/01/01 09:51:44;;;;;;;13.93;9.13;;;13.00;99.90;;;;;;4984208;28;20047;-75
2022/01/01 09:54:11;;;;;;;17.75;10.23;;;13.00;99.90;;;;;;5008215;28;20132;-77
2022/01/01 09:56:39;;;;;;;19.90;11.25;;;12.90;99.90;;;;;;5031517;28;20036;-77
2022/01/01 09:59:06;;;;;;;21.92;11.15;;;12.80;99.90;;;;;;5017906;28;20022;-75
2022/01/01 10:01:34;;;;;;;18.67;11.35;;;12.70;99.90;;;;;;5041009;28;20029;-77
2022/01/01 10:04:01;;;;;;;20.95;11.38;;;12.60;99.90;;;;;;5042093;28;20037;-76
2022/01/01 10:06:29;;;;;;;20.65;12.30;;;12.60;99.90;;;;;;5041997;28;20025;-77
2022/01/01 10:09:03;;;;;;;18.08;11.65;;;12.50;99.90;;;;;;5034427;28;20120;-76
2022/01/01 10:11:30;;;;;;;19.02;11.32;;;12.50;99.90;;;;;;5017051;28;20081;-76
2022/01/01 10:14:16;;;;;;;22.08;11.32;;;12.40;99.90;;;;;;5037633;28;20021;-76
2022/01/01 10:16:44;;;;;;;20.67;11.70;;;12.40;99.90;;;;;;5016478;28;20030;-76
2022/01/01 10:19:12;;;;;;;19.33;11.88;;;12.40;99.90;;;;;;5033251;28;20549;-76
2022/01/01 10:21:58;;;;;;;17.58;10.85;;;12.40;99.90;;;;;;5033892;28;20030;-77
2022/01/01 10:27:42;;;;;;;20.05;10.88;;;12.40;99.90;;;;;;5033413;28;20032;-78
2022/01/01 10:29:58;;;;;;;18.00;10.23;;;12.40;99.90;;;;;;5033880;28;20174;-78
2022/01/01 10:32:25;;;;;;;19.30;10.48;;;12.40;99.90;;;;;;5033490;28;21016;-77
2022/01/01 10:34:53;;;;;;;16.48;9.75;;;12.40;99.90;;;;;;5033752;28;20028;-76
2022/01/01 10:37:33;;;;;;;17.95;9.95;;;12.40;99.90;;;;;;5033580;28;20029;-77
2022/01/01 10:40:01;;;;;;;17.57;10.07;;;12.50;99.90;;;;;;5033405;28;20021;-76
2022/01/01 10:42:28;;;;;;;16.60;10.05;;;12.50;99.90;;;;;;5033468;28;20267;-78
2022/01/01 10:44:56;;;;;;;19.15;10.50;;;12.50;99.90;;;;;;5033272;28;20076;-75
2022/01/01 10:47:38;;;;;;;20.40;10.73;;;12.50;99.90;;;;;;5033599;28;20529;-76
2022/01/01 10:50:17;;;;;;;17.30;11.95;;;12.50;99.90;;;;;;5033470;28;20039;-77
2022/01/01 10:52:46;;;;;;;20.08;11.52;;;12.50;99.90;;;;;;5032722;28;20060;-77
2022/01/01 10:55:17;;;;;;;18.33;11.13;;;12.50;99.90;;;;;;5015215;28;20052;-76
2022/01/01 10:58:00;;;;;;;22.08;11.55;;;12.50;99.90;;;;;;5015617;28;20033;-74
2022/01/01 11:00:29;;;;;;;25.13;12.68;;;12.50;99.90;;;;;;5017041;28;20034;-77
2022/01/01 11:02:58;;;;;;;22.60;12.48;;;12.50;99.90;;;;;;5033257;28;20017;-76
2022/01/01 11:05:29;;;;;;;23.30;12.02;;;12.50;99.90;;;;;;5015710;28;20037;-76
2022/01/01 11:07:56;;;;;;;24.02;12.57;;;12.50;99.90;;;;;;4999086;28;20433;-76
2022/01/01 11:10:24;;;;;;;24.05;12.80;;;12.40;99.90;;;;;;4993611;28;20046;-78
2022/01/01 11:12:52;;;;;;;24.10;13.27;;;12.50;99.90;;;;;;4990004;28;20418;-78
2022/01/01 11:15:20;;;;;;;20.50;11.02;;;12.60;99.90;;;;;;5007057;28;20061;-75
2022/01/01 11:17:48;;;;;;;19.52;11.15;;;12.70;99.90;;;;;;5021577;28;20014;-77
2022/01/01 11:20:22;;;;;;;17.67;11.13;;;12.70;99.90;;;;;;5032553;28;20092;-77
2022/01/01 11:22:49;;;;;;;14.98;10.25;;;12.70;99.90;;;;;;5017012;28;20510;-77
2022/01/01 11:25:16;;;;;;;17.08;10.40;;;12.70;99.90;;;;;;5015508;28;20021;-76
2022/01/01 11:27:46;;;;;;;16.27;9.93;;;12.80;99.90;;;;;;5033467;28;20072;-76
2022/01/01 11:30:16;;;;;;;14.88;9.52;;;12.80;99.90;;;;;;5019923;28;20034;-73
2022/01/01 11:33:03;;;;;;;13.93;9.88;;;12.90;99.90;;;;;;5023688;28;20014;-73
2022/01/01 11:35:59;;;;;;;14.35;9.90;;;13.00;99.90;;;;;;5023740;28;20089;-74
2022/01/01 11:38:37;;;;;;;13.75;8.88;;;13.10;99.90;;;;;;5012368;28;20112;-73
2022/01/01 11:41:07;;;;;;;13.25;8.50;;;13.20;99.90;;;;;;5030630;28;20420;-75
2022/01/01 11:43:43;;;;;;;13.20;8.07;;;13.20;99.90;;;;;;5032316;28;20435;-74
2022/01/01 11:46:20;;;;;;;15.80;10.38;;;13.30;99.90;;;;;;5037240;28;20032;-74
2022/01/01 11:49:15;;;;;;;15.07;8.40;;;13.30;99.90;;;;;;5031354;28;20159;-78
2022/01/01 11:51:52;;;;;;;16.70;8.68;;;13.40;99.90;;;;;;5018579;28;20120;-78
2022/01/01 11:54:26;;;;;;;16.55;8.13;;;13.40;99.90;;;;;;5035109;28;20483;-77
2022/01/01 11:57:02;;;;;;;15.13;8.18;;;13.40;98.80;;;;;;5018926;28;20479;-76
2022/01/01 11:59:42;;;;;;;11.68;8.25;;;13.50;98.40;;;;;;5028922;28;20064;-75
2022/01/01 12:02:25;;;;;;;12.73;8.00;;;13.50;97.70;;;;;;5010529;28;20049;-80
2022/01/01 12:05:23;;;;;;;14.00;8.10;;;13.50;97.70;;;;;;5018762;28;20120;-80
2022/01/01 12:07:58;;;;;;;15.23;8.52;;;13.50;97.70;;;;;;4980169;28;20017;-75
2022/01/01 12:10:34;;;;;;;13.73;8.23;;;13.50;97.20;;;;;;4996966;28;20038;-77
2022/01/01 12:13:09;;;;;;;13.82;7.90;;;13.50;97.40;;;;;;5031085;28;20042;-75
2022/01/01 12:15:51;;;;;;;14.00;8.25;;;13.50;97.10;;;;;;5023595;28;20044;-77
2022/01/01 12:18:27;;;;;;;12.52;7.60;;;13.50;97.10;;;;;;5037873;28;20048;-85
2022/01/01 12:21:27;;;;;;;12.48;7.22;;;13.50;96.50;;;;;;5016217;28;20025;-79
2022/01/01 12:24:21;;;;;;;14.32;8.30;;;13.60;96.40;;;;;;5038329;28;20044;-76
2022/01/01 12:26:55;;;;;;;12.25;8.40;;;13.60;96.60;;;;;;5037205;28;20044;-82
2022/01/01 12:29:24;;;;;;;12.40;7.20;;;13.60;96.40;;;;;;5018196;28;20128;-77
2022/01/01 12:31:59;;;;;;;17.88;7.93;;;13.50;95.60;;;;;;5024861;28;20072;-77
2022/01/01 12:34:27;;;;;;;16.20;8.43;;;13.50;95.70;;;;;;5036272;28;20036;-76
2022/01/01 12:36:55;;;;;;;13.35;8.60;;;13.50;96.00;;;;;;5036242;28;20018;-77
2022/01/01 12:39:22;;;;;;;14.98;8.25;;;13.60;95.70;;;;;;5018804;28;20053;-77
2022/01/01 12:41:50;;;;;;;17.30;9.20;;;13.60;95.60;;;;;;5032853;28;20033;-78
2022/01/01 12:44:20;;;;;;;17.15;8.20;;;13.60;95.60;;;;;;5018678;28;20562;-77
2022/01/01 12:46:59;;;;;;;13.90;7.82;;;13.60;95.30;;;;;;5018525;28;20116;-77
2022/01/01 12:49:33;;;;;;;14.82;8.13;;;13.60;95.10;;;;;;5034467;28;20022;-82
2022/01/01 12:51:59;;;;;;;11.45;7.95;;;13.60;94.80;;;;;;5034271;28;20471;-76